CheckWX is a tool to help pilots better visualize weather data.  It is not intended as a substitute for an official pre-flight weather briefing.

14:50:24 UTC

ESIA METAR
Karlsborg Air Base Airport
Karlsborg, Sweden
Current

30 mins ago

ESIA 221420Z AUTO 07004KT 040V120 9999 NCD 17/M01 Q1023
Observed
Apr-22 @ 14:20 UTC
Wind
  • 070° at 4 KTS
Visibility
10,000+ meters
Flight Rules
VFR
Cloud Levels
  • Clear skies
Temperature
17°C / 63°F
Dewpoint
-1°C / 30°F
Humidity
30%
Altimeter
30.21" Hg
Pressure
1022.92 hPa
Previous

60 mins ago

ESIA 221350Z AUTO 07005KT 050V110 9999 NCD 16/01 Q1023
Observed
Apr-22 @ 13:50 UTC
Wind
  • 070° at 5 KTS
Visibility
10,000+ meters
Flight Rules
VFR
Cloud Levels
  • Clear skies
Temperature
16°C / 61°F
Dewpoint
C / 34°F
Humidity
36%
Altimeter
30.21" Hg
Pressure
1022.92 hPa
Previous

2 hours ago

ESIA 221320Z AUTO 08003KT 030V120 9999 NCD 16/01 Q1023
Observed
Apr-22 @ 13:20 UTC
Wind
  • 080° at 3 KTS
Visibility
10,000+ meters
Flight Rules
VFR
Cloud Levels
  • Clear skies
Temperature
16°C / 61°F
Dewpoint
C / 34°F
Humidity
36%
Altimeter
30.21" Hg
Pressure
1022.92 hPa